createdAt,value
2023-11-19T00:01:25.472Z,6.32
2023-11-19T00:03:05.854Z,6.32
2023-11-19T00:04:46.386Z,6.33
2023-11-19T00:06:26.648Z,6.31
2023-11-19T00:08:07.124Z,6.36
2023-11-19T00:09:47.565Z,6.38
2023-11-19T00:11:28.005Z,6.38
2023-11-19T00:13:08.421Z,6.38
2023-11-19T00:14:48.806Z,6.38
2023-11-19T00:16:29.272Z,6.38
2023-11-19T00:18:09.665Z,6.4
2023-11-19T00:19:50.023Z,6.42
2023-11-19T00:21:30.478Z,6.42
2023-11-19T00:23:10.837Z,6.43
2023-11-19T00:24:51.354Z,6.45
2023-11-19T00:26:31.735Z,6.42
2023-11-19T00:28:12.114Z,6.45
2023-11-19T00:29:52.432Z,6.46
2023-11-19T00:31:32.924Z,6.46
2023-11-19T00:33:13.357Z,6.45
2023-11-19T00:34:53.711Z,6.46
2023-11-19T00:36:34.091Z,6.46
2023-11-19T00:38:14.486Z,6.5
2023-11-19T00:39:54.955Z,6.49
2023-11-19T00:41:35.317Z,6.49
2023-11-19T00:43:15.665Z,6.5
2023-11-19T00:44:56.295Z,6.5
2023-11-19T00:46:36.570Z,6.52
2023-11-19T00:48:16.881Z,6.52
2023-11-19T00:49:57.252Z,6.55
2023-11-19T00:51:37.675Z,6.56
2023-11-19T00:53:18.064Z,6.57
2023-11-19T00:54:58.575Z,6.57
2023-11-19T00:56:38.964Z,6.59
2023-11-19T00:58:19.441Z,6.6
2023-11-19T00:59:59.808Z,6.62
2023-11-19T01:01:40.157Z,6.65
2023-11-19T01:03:20.833Z,6.63
2023-11-19T01:05:01.111Z,6.67
2023-11-19T01:06:49.371Z,6.67
2023-11-19T01:08:21.904Z,6.67
2023-11-19T01:10:02.370Z,6.7
2023-11-19T01:11:42.812Z,6.75
2023-11-19T01:13:23.288Z,6.73
2023-11-19T01:15:03.634Z,6.75
2023-11-19T01:16:44.119Z,6.75
2023-11-19T01:18:24.468Z,6.75
2023-11-19T01:20:04.835Z,6.77
2023-11-19T01:21:45.262Z,6.79
2023-11-19T01:23:25.728Z,6.79
2023-11-19T01:25:06.142Z,6.82
2023-11-19T01:26:46.780Z,6.8
2023-11-19T01:28:26.998Z,6.86
2023-11-19T01:30:07.285Z,6.86
2023-11-19T01:31:47.662Z,6.87
2023-11-19T01:33:27.983Z,6.87
2023-11-19T01:35:08.505Z,6.93
2023-11-19T01:36:48.889Z,6.88
2023-11-19T01:38:29.346Z,6.91
2023-11-19T01:40:09.810Z,6.91
2023-11-19T01:41:50.184Z,6.93
2023-11-19T01:43:30.581Z,6.94
2023-11-19T01:45:11.545Z,6.93
2023-11-19T01:46:51.444Z,6.97
2023-11-19T01:48:31.704Z,6.97
2023-11-19T01:50:12.134Z,6.97
2023-11-19T01:51:52.571Z,6.98
2023-11-19T01:53:33.051Z,7
2023-11-19T01:55:13.350Z,6.98
2023-11-19T01:56:53.752Z,7.06
2023-11-19T01:58:34.166Z,7.03
2023-11-19T02:00:14.494Z,7.06
2023-11-19T02:02:00.843Z,7.07
2023-11-19T02:03:35.437Z,7.08
2023-11-19T02:05:15.691Z,7.1
2023-11-19T02:06:56.117Z,7.1
2023-11-19T02:08:36.474Z,7.12
2023-11-19T02:10:16.992Z,7.14
2023-11-19T02:11:57.412Z,7.12
2023-11-19T02:13:37.785Z,7.17
2023-11-19T02:15:18.228Z,7.15
2023-11-19T02:16:58.623Z,7.18
2023-11-19T02:18:39.109Z,7.21
2023-11-19T02:20:19.596Z,7.21
2023-11-19T02:21:59.959Z,7.22
2023-11-19T02:23:40.259Z,7.21
2023-11-19T02:25:20.721Z,7.25
2023-11-19T02:27:01.131Z,7.28
2023-11-19T02:28:41.575Z,7.34
2023-11-19T02:30:22.016Z,7.32
2023-11-19T02:32:02.559Z,7.36
2023-11-19T02:33:42.895Z,7.38
2023-11-19T02:35:23.284Z,7.41
2023-11-19T02:37:03.669Z,7.44
2023-11-19T02:38:44.051Z,7.44
2023-11-19T02:40:24.534Z,7.44
2023-11-19T02:42:04.929Z,7.45
2023-11-19T02:43:45.321Z,7.48
2023-11-19T02:45:25.836Z,7.48
2023-11-19T02:47:06.170Z,7.52
2023-11-19T02:48:46.679Z,7.55
2023-11-19T02:50:27.171Z,7.55
2023-11-19T02:52:07.513Z,7.58
2023-11-19T02:53:47.911Z,7.61
2023-11-19T02:55:28.381Z,7.66
2023-11-19T02:57:08.639Z,7.66
2023-11-19T02:58:49.097Z,7.67
2023-11-19T03:00:29.493Z,7.65
2023-11-19T03:02:10.016Z,7.66
2023-11-19T03:05:30.660Z,7.66
2023-11-19T03:07:26.150Z,7.69
2023-11-19T03:08:51.576Z,7.7
2023-11-19T03:10:32.025Z,7.73
2023-11-19T03:12:12.357Z,7.79
2023-11-19T03:13:52.813Z,7.79
2023-11-19T03:15:33.212Z,7.8
2023-11-19T03:17:13.532Z,7.83
2023-11-19T03:18:53.986Z,7.82
2023-11-19T03:20:34.312Z,7.82
2023-11-19T03:22:14.700Z,7.82
2023-11-19T03:23:55.091Z,7.83
2023-11-19T03:25:35.592Z,7.83
2023-11-19T03:27:17.605Z,7.8
2023-11-19T03:28:56.446Z,7.8
2023-11-19T03:30:36.897Z,7.8
2023-11-19T03:32:17.285Z,7.82
2023-11-19T03:33:59.503Z,7.82
2023-11-19T03:35:38.049Z,7.82
2023-11-19T03:37:18.549Z,7.86
2023-11-19T03:38:58.918Z,7.85
2023-11-19T03:40:39.385Z,7.86
2023-11-19T03:42:19.739Z,7.82
2023-11-19T03:44:00.201Z,7.85
2023-11-19T03:45:40.576Z,7.86
2023-11-19T03:47:20.979Z,7.86
2023-11-19T03:49:01.474Z,7.86
2023-11-19T03:50:41.812Z,7.89
2023-11-19T03:52:22.254Z,7.9
2023-11-19T03:54:02.630Z,7.92
2023-11-19T03:55:42.938Z,7.93
2023-11-19T03:57:23.364Z,7.96
2023-11-19T03:59:03.773Z,7.96
2023-11-19T04:00:44.259Z,7.97
2023-11-19T04:02:24.679Z,8
2023-11-19T04:04:05.126Z,8
2023-11-19T04:05:45.436Z,8.01
2023-11-19T04:07:25.808Z,7.98
2023-11-19T04:09:06.221Z,8
2023-11-19T04:10:46.606Z,8
2023-11-19T04:12:27.003Z,8.03
2023-11-19T04:14:07.436Z,8.04
2023-11-19T04:15:47.750Z,8.04
2023-11-19T04:17:28.239Z,8.05
2023-11-19T04:19:08.666Z,8.07
2023-11-19T04:20:49.092Z,8.05
2023-11-19T04:22:29.480Z,8.08
2023-11-19T04:24:09.832Z,8.15
2023-11-19T04:25:50.125Z,8.17
2023-11-19T04:27:30.531Z,8.17
2023-11-19T04:29:10.815Z,8.25
2023-11-19T04:30:51.267Z,8.25
2023-11-19T04:32:31.616Z,8.33
2023-11-19T04:34:12.130Z,8.41
2023-11-19T04:35:52.543Z,8.44
2023-11-19T04:37:32.947Z,8.49
2023-11-19T04:39:13.321Z,8.49
2023-11-19T04:40:53.757Z,8.55
2023-11-19T04:42:34.193Z,8.55
2023-11-19T04:44:14.619Z,8.55
2023-11-19T04:45:55.193Z,8.58
2023-11-19T04:47:35.662Z,8.62
2023-11-19T04:49:15.862Z,8.61
2023-11-19T04:50:56.298Z,8.61
2023-11-19T04:52:36.766Z,8.61
2023-11-19T04:54:17.096Z,8.62
2023-11-19T04:55:57.523Z,8.58
2023-11-19T04:57:37.887Z,8.62
2023-11-19T04:59:18.351Z,8.63
2023-11-19T05:00:58.841Z,8.61
2023-11-19T05:02:39.395Z,8.65
2023-11-19T05:04:19.932Z,8.58
2023-11-19T05:06:00.025Z,8.56
2023-11-19T05:07:40.604Z,8.56
2023-11-19T05:09:20.956Z,8.51
2023-11-19T05:11:01.298Z,8.48
2023-11-19T05:12:41.798Z,8.47
2023-11-19T05:14:22.164Z,8.51
2023-11-19T05:16:02.592Z,8.51
2023-11-19T05:17:43.039Z,8.47
2023-11-19T05:19:23.465Z,8.44
2023-11-19T05:21:03.863Z,8.4
2023-11-19T05:22:44.283Z,8.38
2023-11-19T05:24:24.770Z,8.37
2023-11-19T05:26:08.418Z,8.37
2023-11-19T05:27:45.596Z,8.38
2023-11-19T05:29:26.057Z,8.45
2023-11-19T05:31:06.578Z,8.42
2023-11-19T05:32:46.931Z,8.41
2023-11-19T05:34:27.413Z,8.56
2023-11-19T05:36:07.778Z,8.68
2023-11-19T05:37:48.272Z,8.75
2023-11-19T05:39:28.730Z,8.83
2023-11-19T05:41:09.354Z,8.82
2023-11-19T05:42:49.622Z,8.94
2023-11-19T05:44:30.023Z,8.96
2023-11-19T05:47:51.136Z,8.96
2023-11-19T05:49:31.486Z,9.04
2023-11-19T05:51:11.909Z,8.99
2023-11-19T05:52:52.251Z,8.98
2023-11-19T05:54:32.830Z,8.89
2023-11-19T05:56:13.190Z,8.76
2023-11-19T05:57:53.610Z,8.66
2023-11-19T05:59:34.045Z,8.56
2023-11-19T06:01:14.608Z,8.47
2023-11-19T06:02:54.856Z,8.38
2023-11-19T06:04:35.298Z,8.37
2023-11-19T06:06:15.602Z,8.33
2023-11-19T06:07:56.037Z,8.24
2023-11-19T06:09:36.455Z,8.2
2023-11-19T06:11:16.880Z,8.27
2023-11-19T06:12:57.308Z,8.24
2023-11-19T06:14:37.759Z,8.21
2023-11-19T06:16:18.196Z,8.24
2023-11-19T06:17:58.386Z,8.24
2023-11-19T06:19:38.763Z,8.37
2023-11-19T06:21:19.096Z,8.45
2023-11-19T06:22:59.509Z,8.51
2023-11-19T06:24:41.890Z,8.51
2023-11-19T06:26:20.297Z,8.54
2023-11-19T06:28:00.713Z,8.58
2023-11-19T06:29:41.106Z,8.59
2023-11-19T06:31:21.600Z,8.65
2023-11-19T06:33:02.027Z,8.61
2023-11-19T06:34:42.372Z,8.59
2023-11-19T06:38:02.999Z,8.63
2023-11-19T06:39:43.423Z,8.62
2023-11-19T06:41:23.928Z,8.62
2023-11-19T06:43:04.383Z,8.63
2023-11-19T06:44:44.761Z,8.76
2023-11-19T06:46:25.110Z,8.8
2023-11-19T06:48:05.514Z,8.84
2023-11-19T06:49:45.947Z,8.92
2023-11-19T06:51:26.385Z,8.89
2023-11-19T06:53:06.832Z,8.87
2023-11-19T06:54:47.283Z,8.9
2023-11-19T06:56:27.654Z,8.93
2023-11-19T06:58:08.009Z,8.96
2023-11-19T06:59:48.452Z,8.94
2023-11-19T07:01:28.906Z,8.92
2023-11-19T07:03:09.455Z,8.96
2023-11-19T07:04:49.804Z,8.96
2023-11-19T07:08:10.853Z,8.98
2023-11-19T07:09:51.214Z,9.09
2023-11-19T07:11:31.632Z,9.26
2023-11-19T07:13:12.009Z,9.38
2023-11-19T07:14:52.417Z,9.52
2023-11-19T07:16:32.802Z,9.58
2023-11-19T07:18:13.256Z,9.62
2023-11-19T07:19:53.646Z,9.71
2023-11-19T07:21:34.062Z,9.71
2023-11-19T07:23:14.447Z,9.77
2023-11-19T07:24:54.858Z,9.86
2023-11-19T07:26:35.300Z,9.93
2023-11-19T07:28:15.711Z,9.96
2023-11-19T07:29:56.198Z,9.95
2023-11-19T07:31:36.506Z,9.96
2023-11-19T07:33:16.974Z,10.03
2023-11-19T07:34:57.323Z,10.16
2023-11-19T07:36:37.718Z,10.19
2023-11-19T07:38:18.308Z,10.2
2023-11-19T07:39:58.637Z,10.23
2023-11-19T07:41:39.102Z,10.24
2023-11-19T07:43:19.463Z,10.21
2023-11-19T07:44:59.809Z,10.23
2023-11-19T07:46:40.334Z,10.2
2023-11-19T07:48:20.731Z,10.17
2023-11-19T07:50:01.116Z,10.16
2023-11-19T07:51:41.534Z,10.12
2023-11-19T07:53:21.969Z,10.16
2023-11-19T07:55:02.342Z,10.24
2023-11-19T07:56:42.852Z,10.46
2023-11-19T07:58:23.199Z,10.53
2023-11-19T08:00:03.635Z,10.61
2023-11-19T08:01:44.218Z,10.65
2023-11-19T08:03:24.590Z,10.72
2023-11-19T08:05:04.957Z,10.72
2023-11-19T08:06:45.265Z,10.74
2023-11-19T08:08:25.704Z,10.74
2023-11-19T08:10:06.165Z,10.74
2023-11-19T08:11:46.681Z,10.76
2023-11-19T08:13:27.117Z,10.76
2023-11-19T08:15:07.600Z,10.79
2023-11-19T08:16:47.956Z,10.81
2023-11-19T08:18:28.353Z,10.81
2023-11-19T08:20:08.777Z,10.85
2023-11-19T08:21:49.254Z,10.91
2023-11-19T08:23:29.634Z,11.01
2023-11-19T08:25:10.015Z,11.05
2023-11-19T08:27:02.938Z,11.08
2023-11-19T08:28:30.688Z,11.11
2023-11-19T08:30:11.123Z,11.09
2023-11-19T08:31:51.613Z,11.16
2023-11-19T08:33:32.095Z,11.16
2023-11-19T08:35:12.562Z,11.23
2023-11-19T08:36:52.982Z,11.27
2023-11-19T08:38:33.410Z,11.3
2023-11-19T08:40:13.793Z,11.32
2023-11-19T08:41:54.197Z,11.33
2023-11-19T08:43:34.580Z,11.37
2023-11-19T08:45:14.983Z,11.49
2023-11-19T08:46:55.464Z,11.56
2023-11-19T08:48:35.914Z,11.66
2023-11-19T08:50:16.371Z,11.66
2023-11-19T08:51:56.682Z,11.69
2023-11-19T08:53:37.195Z,11.63
2023-11-19T08:55:17.541Z,11.66
2023-11-19T08:56:57.981Z,11.69
2023-11-19T08:58:38.445Z,11.67
2023-11-19T09:00:18.896Z,11.69
2023-11-19T09:01:59.368Z,11.74
2023-11-19T09:03:39.978Z,11.74
2023-11-19T09:05:20.410Z,11.77
2023-11-19T09:07:00.684Z,11.8
2023-11-19T09:08:41.154Z,11.84
2023-11-19T09:10:21.557Z,11.87
2023-11-19T09:12:01.964Z,11.92
2023-11-19T09:13:42.439Z,11.94
2023-11-19T09:15:22.900Z,11.92
2023-11-19T09:17:03.230Z,11.95
2023-11-19T09:18:43.687Z,12.01
2023-11-19T09:20:24.111Z,12
2023-11-19T09:22:04.505Z,12.06
2023-11-19T09:23:44.881Z,12.12
2023-11-19T09:25:25.182Z,12.15
2023-11-19T09:27:05.693Z,12.17
2023-11-19T09:28:46.024Z,12.24
2023-11-19T09:30:26.491Z,12.24
2023-11-19T09:32:07.095Z,12.32
2023-11-19T09:33:47.453Z,12.33
2023-11-19T09:35:27.728Z,12.4
2023-11-19T09:37:21.864Z,12.39
2023-11-19T09:38:48.540Z,12.43
2023-11-19T09:40:28.978Z,12.45
2023-11-19T09:42:09.385Z,12.45
2023-11-19T09:43:49.857Z,12.45
2023-11-19T09:45:30.272Z,12.39
2023-11-19T09:47:10.722Z,12.39
2023-11-19T09:48:51.141Z,12.42
2023-11-19T09:50:31.483Z,12.4
2023-11-19T09:52:11.871Z,12.36
2023-11-19T09:53:52.368Z,12.38
2023-11-19T09:55:32.782Z,12.39
2023-11-19T09:57:13.145Z,12.38
2023-11-19T09:58:53.592Z,12.35
2023-11-19T10:00:33.993Z,12.33
2023-11-19T10:02:14.519Z,12.31
2023-11-19T10:03:55.061Z,12.28
2023-11-19T10:05:35.507Z,12.27
2023-11-19T10:07:15.796Z,12.24
2023-11-19T10:08:56.236Z,12.18
2023-11-19T10:10:36.689Z,12.15
2023-11-19T10:12:17.040Z,12.21
2023-11-19T10:13:57.464Z,12.24
2023-11-19T10:15:37.924Z,12.27
2023-11-19T10:17:18.277Z,12.32
2023-11-19T10:18:58.726Z,12.38
2023-11-19T10:20:39.169Z,12.43
2023-11-19T10:22:19.616Z,12.49
2023-11-19T10:24:00.127Z,12.48
2023-11-19T10:25:40.486Z,12.46
2023-11-19T10:27:20.898Z,12.46
2023-11-19T10:29:01.425Z,12.49
2023-11-19T10:30:41.845Z,12.46
2023-11-19T10:32:25.884Z,12.49
2023-11-19T10:34:02.754Z,12.48
2023-11-19T10:35:43.152Z,12.42
2023-11-19T10:37:23.494Z,12.46
2023-11-19T10:39:03.944Z,12.52
2023-11-19T10:40:44.388Z,12.64
2023-11-19T10:42:24.851Z,12.7
2023-11-19T10:44:05.384Z,12.72
2023-11-19T10:45:45.787Z,12.8
2023-11-19T10:49:06.462Z,13.11
2023-11-19T10:50:47.046Z,13.1
2023-11-19T10:52:27.258Z,13.06
2023-11-19T10:54:07.723Z,13.13
2023-11-19T10:55:48.123Z,13.07
2023-11-19T10:57:28.562Z,13.03
2023-11-19T11:00:49.411Z,12.9
2023-11-19T11:02:29.874Z,12.84
2023-11-19T11:04:10.340Z,12.73
2023-11-19T11:05:50.763Z,12.73
2023-11-19T11:07:39.462Z,12.76
2023-11-19T11:09:11.582Z,12.73
2023-11-19T11:12:32.417Z,12.63
2023-11-19T11:14:12.878Z,12.57
2023-11-19T11:15:53.489Z,12.66
2023-11-19T11:17:33.828Z,12.72
2023-11-19T11:19:14.071Z,12.66
2023-11-19T11:20:54.541Z,12.7
2023-11-19T11:22:35.540Z,12.79
2023-11-19T11:24:15.290Z,12.8
2023-11-19T11:25:55.739Z,12.77
2023-11-19T11:27:36.208Z,12.79
2023-11-19T11:29:16.576Z,12.73
2023-11-19T11:30:56.989Z,12.75
2023-11-19T11:32:37.257Z,12.77
2023-11-19T11:34:17.736Z,12.82
2023-11-19T11:35:58.146Z,12.83
2023-11-19T11:37:38.551Z,12.88
2023-11-19T11:39:18.961Z,12.93
2023-11-19T11:40:59.378Z,13.01
2023-11-19T11:42:39.762Z,13.01
2023-11-19T11:44:20.264Z,13.03
2023-11-19T11:46:00.788Z,13
2023-11-19T11:47:41.071Z,12.93
2023-11-19T11:49:21.465Z,12.93
2023-11-19T11:51:01.935Z,12.9
2023-11-19T11:52:42.358Z,12.9
2023-11-19T11:54:22.797Z,12.86
2023-11-19T11:56:03.137Z,12.86
2023-11-19T11:57:43.589Z,12.83
2023-11-19T11:59:24.005Z,12.75
2023-11-19T12:01:04.432Z,12.67
2023-11-19T12:02:44.739Z,12.64
2023-11-19T12:04:25.237Z,12.57
2023-11-19T12:06:05.551Z,12.5
2023-11-19T12:07:45.981Z,12.5
2023-11-19T12:09:26.485Z,12.46
2023-11-19T12:11:06.847Z,12.45
2023-11-19T12:12:47.210Z,12.38
2023-11-19T12:14:27.576Z,12.33
2023-11-19T12:16:08.010Z,12.31
2023-11-19T12:17:48.453Z,12.25
2023-11-19T12:19:28.755Z,12.27
2023-11-19T12:21:09.162Z,12.24
2023-11-19T12:22:49.685Z,12.15
2023-11-19T12:24:30.066Z,12.06
2023-11-19T12:26:10.362Z,12.02
2023-11-19T12:27:50.838Z,11.97
2023-11-19T12:29:31.220Z,11.91
2023-11-19T12:31:11.738Z,11.84
2023-11-19T12:32:52.179Z,11.8
2023-11-19T12:34:32.589Z,11.76
2023-11-19T12:36:13.045Z,11.7
2023-11-19T12:37:53.465Z,11.63
2023-11-19T12:39:33.915Z,11.56
2023-11-19T12:41:14.296Z,11.5
2023-11-19T12:42:55.165Z,11.46
2023-11-19T12:44:35.162Z,11.42
2023-11-19T12:46:15.723Z,11.4
2023-11-19T12:47:56.026Z,11.37
2023-11-19T12:49:36.398Z,11.34
2023-11-19T12:51:16.826Z,11.29
2023-11-19T12:52:57.238Z,11.22
2023-11-19T12:54:40.755Z,11.16
2023-11-19T12:56:18.156Z,11.08
2023-11-19T12:57:58.605Z,10.99
2023-11-19T12:59:39.104Z,10.91
2023-11-19T13:01:19.535Z,10.85
2023-11-19T13:02:59.976Z,10.84
2023-11-19T13:04:40.349Z,10.86
2023-11-19T13:06:20.740Z,10.86
2023-11-19T13:08:01.272Z,10.9
2023-11-19T13:09:41.684Z,10.91
2023-11-19T13:11:22.011Z,10.94
2023-11-19T13:13:02.496Z,10.92
2023-11-19T13:14:42.831Z,11.01
2023-11-19T13:16:23.242Z,11.05
2023-11-19T13:18:03.619Z,11.06
2023-11-19T13:19:43.984Z,11.11
2023-11-19T13:21:24.555Z,11.09
2023-11-19T13:23:04.972Z,11.16
2023-11-19T13:24:45.413Z,11.21
2023-11-19T13:26:25.773Z,11.29
2023-11-19T13:28:06.185Z,11.36
2023-11-19T13:29:46.468Z,11.44
2023-11-19T13:31:26.905Z,11.54
2023-11-19T13:33:07.157Z,11.56
2023-11-19T13:34:47.584Z,11.6
2023-11-19T13:36:28.002Z,11.64
2023-11-19T13:38:08.392Z,11.67
2023-11-19T13:39:48.925Z,11.66
2023-11-19T13:41:29.370Z,11.67
2023-11-19T13:43:09.819Z,11.67
2023-11-19T13:44:50.235Z,11.69
2023-11-19T13:46:30.673Z,11.71
2023-11-19T13:48:11.080Z,11.74
2023-11-19T13:49:51.496Z,11.87
2023-11-19T13:51:31.912Z,11.87
2023-11-19T13:53:12.262Z,11.82
2023-11-19T13:54:53.929Z,11.87
2023-11-19T13:56:33.113Z,11.88
2023-11-19T13:58:13.593Z,11.87
2023-11-19T13:59:54.073Z,11.9
2023-11-19T14:01:34.486Z,11.87
2023-11-19T14:03:15.061Z,11.9
2023-11-19T14:04:55.306Z,11.92
2023-11-19T14:06:35.716Z,11.88
2023-11-19T14:08:23.410Z,11.94
2023-11-19T14:09:56.574Z,11.95
2023-11-19T14:11:36.937Z,11.98
2023-11-19T14:13:17.395Z,12
2023-11-19T14:14:57.828Z,11.92
2023-11-19T14:16:38.291Z,11.82
2023-11-19T14:18:18.681Z,11.81
2023-11-19T14:19:59.130Z,11.81
2023-11-19T14:21:39.578Z,11.88
2023-11-19T14:23:19.946Z,11.87
2023-11-19T14:25:00.466Z,11.91
2023-11-19T14:26:40.881Z,11.94
2023-11-19T14:28:21.249Z,11.87
2023-11-19T14:30:01.675Z,11.84
2023-11-19T14:31:42.053Z,11.77
2023-11-19T14:33:22.413Z,11.67
2023-11-19T14:35:02.779Z,11.61
2023-11-19T14:36:43.122Z,11.7
2023-11-19T14:38:23.513Z,11.7
2023-11-19T14:40:03.932Z,11.69
2023-11-19T14:41:44.337Z,11.73
2023-11-19T14:43:24.725Z,11.73
2023-11-19T14:45:05.109Z,11.67
2023-11-19T14:46:45.585Z,11.64
2023-11-19T14:48:25.981Z,11.6
2023-11-19T14:50:06.367Z,11.56
2023-11-19T14:51:49.113Z,11.53
2023-11-19T14:53:27.570Z,11.47
2023-11-19T14:55:07.751Z,11.53
2023-11-19T14:56:48.240Z,11.57
2023-11-19T14:58:28.736Z,11.57
2023-11-19T15:00:09.214Z,11.6
2023-11-19T15:01:49.706Z,11.59
2023-11-19T15:03:30.351Z,11.61
2023-11-19T15:05:10.690Z,11.54
2023-11-19T15:06:51.241Z,11.53
2023-11-19T15:08:31.670Z,11.49
2023-11-19T15:10:12.161Z,11.47
2023-11-19T15:11:53.472Z,11.4
2023-11-19T15:13:33.942Z,11.34
2023-11-19T15:15:15.174Z,11.29
2023-11-19T15:16:55.602Z,11.21
2023-11-19T15:18:35.995Z,11.11
2023-11-19T15:20:16.509Z,11.05
2023-11-19T15:21:56.849Z,10.96
2023-11-19T15:23:37.279Z,10.9
2023-11-19T15:25:17.686Z,10.88
2023-11-19T15:27:14.171Z,10.84
2023-11-19T15:28:38.569Z,10.74
2023-11-19T15:30:18.976Z,10.7
2023-11-19T15:31:59.414Z,10.72
2023-11-19T15:33:39.809Z,10.7
2023-11-19T15:35:20.304Z,10.65
2023-11-19T15:37:00.814Z,10.58
2023-11-19T15:40:21.572Z,10.51
2023-11-19T15:42:01.984Z,10.46
2023-11-19T15:43:42.500Z,10.4
2023-11-19T15:45:22.880Z,10.3
2023-11-19T15:47:03.354Z,10.21
2023-11-19T15:48:43.805Z,10.2
2023-11-19T15:50:24.231Z,10.16
2023-11-19T15:52:04.678Z,10.09
2023-11-19T15:53:45.203Z,9.99
2023-11-19T15:55:25.642Z,9.84
2023-11-19T15:57:06.024Z,9.78
2023-11-19T15:58:46.497Z,9.72
2023-11-19T16:00:26.910Z,9.79
2023-11-19T16:02:07.465Z,9.9
2023-11-19T16:05:28.230Z,10.07
2023-11-19T16:07:08.606Z,10.02
2023-11-19T16:08:49.063Z,10.06
2023-11-19T16:10:29.514Z,10.09
2023-11-19T16:12:09.724Z,10.1
2023-11-19T16:37:47.220Z,0
2023-11-19T16:39:27.546Z,0
2023-11-19T16:41:07.976Z,0
2023-11-19T16:42:48.421Z,0
2023-11-19T16:44:28.911Z,0
2023-11-19T16:46:09.322Z,0
2023-11-19T16:47:50.068Z,0
2023-11-19T16:49:30.217Z,0
2023-11-19T18:12:16.827Z,0
2023-11-19T18:13:55.054Z,10.9
2023-11-19T18:15:37.660Z,10.88
2023-11-19T18:17:15.975Z,10.9
2023-11-19T18:18:56.469Z,10.9
2023-11-19T18:20:36.832Z,10.91
2023-11-19T18:22:17.262Z,10.82
2023-11-19T18:23:57.637Z,10.76
2023-11-19T18:25:38.111Z,10.71
2023-11-19T18:27:18.450Z,10.65
2023-11-19T18:28:58.930Z,10.58
2023-11-19T18:30:39.378Z,10.56
2023-11-19T18:32:19.790Z,10.51
2023-11-19T18:34:00.331Z,10.44
2023-11-19T18:35:40.732Z,10.4
2023-11-19T18:37:21.146Z,10.4
2023-11-19T18:39:01.711Z,10.39
2023-11-19T18:40:42.098Z,10.4
2023-11-19T18:42:22.574Z,10.4
2023-11-19T18:44:02.986Z,10.36
2023-11-19T18:45:43.389Z,10.37
2023-11-19T18:47:23.857Z,10.36
2023-11-19T18:49:04.289Z,10.35
2023-11-19T18:52:25.174Z,10.35
2023-11-19T18:54:05.633Z,10.33
2023-11-19T18:55:46.093Z,10.33
2023-11-19T18:57:26.492Z,10.27
2023-11-19T18:59:07.059Z,10.29
2023-11-19T19:00:47.432Z,10.26
2023-11-19T19:02:28.001Z,10.2
2023-11-19T19:04:08.426Z,10.17
2023-11-19T19:05:48.766Z,10.17
2023-11-19T19:07:29.194Z,10.12
2023-11-19T19:09:09.644Z,10.09
2023-11-19T19:10:50.073Z,10.09
2023-11-19T19:12:30.480Z,10.09
2023-11-19T19:14:11.013Z,10.05
2023-11-19T19:15:51.298Z,10.02
2023-11-19T19:17:31.746Z,10.02
2023-11-19T19:19:12.141Z,9.99
2023-11-19T19:20:52.554Z,9.98
2023-11-19T19:22:33.004Z,9.95
2023-11-19T19:24:13.390Z,9.95
2023-11-19T19:25:55.474Z,9.95
2023-11-19T19:27:34.241Z,9.96
2023-11-19T19:29:14.734Z,9.93
2023-11-19T19:30:55.094Z,9.92
2023-11-19T19:32:35.526Z,9.9
2023-11-19T19:34:15.908Z,9.89
2023-11-19T19:35:56.291Z,9.9
2023-11-19T19:37:36.768Z,9.89
2023-11-19T19:39:17.223Z,9.85
2023-11-19T19:40:57.573Z,9.85
2023-11-19T19:42:38.051Z,9.84
2023-11-19T19:44:18.496Z,9.82
2023-11-19T19:45:58.920Z,9.82
2023-11-19T19:47:39.359Z,9.84
2023-11-19T19:49:19.710Z,9.85
2023-11-19T19:51:00.154Z,9.84
2023-11-19T19:52:41.473Z,9.84
2023-11-19T19:54:20.985Z,9.82
2023-11-19T19:56:01.326Z,9.79
2023-11-19T19:57:41.794Z,9.78
2023-11-19T19:59:22.254Z,9.77
2023-11-19T20:01:02.602Z,9.74
2023-11-19T20:02:43.171Z,9.75
2023-11-19T20:04:23.457Z,9.71
2023-11-19T20:06:03.858Z,9.69
2023-11-19T20:07:44.303Z,9.72
2023-11-19T20:09:24.875Z,9.71
2023-11-19T20:11:05.401Z,9.71
2023-11-19T20:12:45.810Z,9.68
2023-11-19T20:14:26.244Z,9.66
2023-11-19T20:16:06.669Z,9.68
2023-11-19T20:17:47.088Z,9.69
2023-11-19T20:19:27.474Z,9.71
2023-11-19T20:21:07.952Z,9.68
2023-11-19T20:22:48.374Z,9.66
2023-11-19T20:24:28.838Z,9.65
2023-11-19T20:26:09.232Z,9.66
2023-11-19T20:27:49.733Z,9.68
2023-11-19T20:29:30.033Z,9.66
2023-11-19T20:31:10.502Z,9.71
2023-11-19T20:32:50.977Z,9.68
2023-11-19T20:34:31.318Z,9.71
2023-11-19T20:36:11.672Z,9.72
2023-11-19T20:37:52.056Z,9.71
2023-11-19T20:39:32.452Z,9.69
2023-11-19T20:41:13.127Z,9.66
2023-11-19T20:42:53.448Z,9.65
2023-11-19T20:44:33.818Z,9.66
2023-11-19T20:46:14.363Z,9.63
2023-11-19T20:47:54.952Z,9.66
2023-11-19T20:49:35.305Z,9.66
2023-11-19T20:51:15.788Z,9.68
2023-11-19T20:52:56.189Z,9.77
2023-11-19T20:56:17.125Z,9.81
2023-11-19T20:57:57.682Z,9.77
2023-11-19T20:59:37.955Z,9.77
2023-11-19T21:01:18.436Z,9.74
2023-11-19T21:02:58.891Z,9.75
2023-11-19T21:04:39.302Z,9.77
2023-11-19T21:06:19.702Z,9.74
2023-11-19T21:08:00.235Z,9.74
2023-11-19T21:09:40.699Z,9.72
2023-11-19T21:11:21.045Z,9.71
2023-11-19T21:13:01.456Z,9.71
2023-11-19T21:14:41.919Z,9.66
2023-11-19T21:16:22.310Z,9.68
2023-11-19T21:18:02.715Z,9.66
2023-11-19T21:21:23.608Z,9.66
2023-11-19T21:23:04.068Z,9.68
2023-11-19T21:24:44.517Z,9.62
2023-11-19T21:26:24.918Z,9.61
2023-11-19T21:28:05.322Z,9.62
2023-11-19T21:29:45.748Z,9.59
2023-11-19T21:31:26.221Z,9.57
2023-11-19T21:33:06.627Z,9.55
2023-11-19T21:34:47.028Z,9.52
2023-11-19T21:36:27.487Z,9.51
2023-11-19T21:38:07.917Z,9.51
2023-11-19T21:39:48.355Z,9.5
2023-11-19T21:41:28.756Z,9.48
2023-11-19T21:43:09.153Z,9.5
2023-11-19T21:44:49.624Z,9.48
2023-11-19T21:46:31.393Z,9.48
2023-11-19T21:48:10.381Z,9.48
2023-11-19T21:49:50.866Z,9.47
2023-11-19T21:51:31.407Z,9.47
2023-11-19T21:53:11.830Z,9.47
2023-11-19T21:54:52.283Z,9.45
2023-11-19T21:56:32.717Z,9.47
2023-11-19T21:58:13.145Z,9.47
2023-11-19T21:59:53.600Z,9.44
2023-11-19T22:01:34.196Z,9.45
2023-11-19T22:03:14.483Z,9.42
2023-11-19T22:04:54.974Z,9.44
2023-11-19T22:06:35.542Z,9.47
2023-11-19T22:08:18.822Z,9.44
2023-11-19T22:09:56.363Z,9.45
2023-11-19T22:11:36.778Z,9.45
2023-11-19T22:13:17.232Z,9.47
2023-11-19T22:14:57.716Z,9.45
2023-11-19T22:16:38.218Z,9.42
2023-11-19T22:18:18.595Z,9.42
2023-11-19T22:19:59.024Z,9.44
2023-11-19T22:21:39.517Z,9.41
2023-11-19T22:23:19.855Z,9.41
2023-11-19T22:25:00.287Z,9.47
2023-11-19T22:26:40.608Z,9.44
2023-11-19T22:28:21.128Z,9.47
2023-11-19T22:30:01.673Z,9.47
2023-11-19T22:31:42.068Z,9.5
2023-11-19T22:33:22.387Z,9.51
2023-11-19T22:35:02.804Z,9.51
2023-11-19T22:36:43.275Z,9.58
2023-11-19T22:38:23.677Z,9.61
2023-11-19T22:40:04.083Z,9.66
2023-11-19T22:41:44.613Z,9.65
2023-11-19T22:43:25.029Z,9.68
2023-11-19T22:45:05.542Z,9.69
2023-11-19T22:46:46.036Z,9.65
2023-11-19T22:48:26.674Z,9.65
2023-11-19T22:50:06.972Z,9.63
2023-11-19T22:51:47.463Z,9.63
2023-11-19T22:53:27.898Z,9.63
2023-11-19T22:55:08.433Z,9.78
2023-11-19T22:56:48.819Z,9.79
2023-11-19T22:58:29.322Z,9.78
2023-11-19T23:00:09.789Z,9.78
2023-11-19T23:01:50.151Z,9.75
2023-11-19T23:03:30.650Z,9.79
2023-11-19T23:05:11.044Z,9.79
2023-11-19T23:06:51.500Z,9.77
2023-11-19T23:08:31.928Z,9.75
2023-11-19T23:10:13.328Z,9.74
2023-11-19T23:11:52.734Z,9.69
2023-11-19T23:13:33.168Z,9.74
2023-11-19T23:15:13.656Z,9.74
2023-11-19T23:16:54.046Z,9.71
2023-11-19T23:18:34.515Z,9.75
2023-11-19T23:20:14.980Z,9.74
2023-11-19T23:21:55.455Z,9.72
2023-11-19T23:23:35.860Z,9.71
2023-11-19T23:25:16.338Z,9.69
2023-11-19T23:26:56.681Z,9.72
2023-11-19T23:28:37.062Z,9.75
2023-11-19T23:30:17.504Z,9.75
2023-11-19T23:31:57.978Z,9.75
2023-11-19T23:33:38.616Z,9.75
2023-11-19T23:35:18.900Z,9.74
2023-11-19T23:36:59.365Z,9.71
2023-11-19T23:38:39.813Z,9.71
2023-11-19T23:40:20.232Z,9.77
2023-11-19T23:42:00.754Z,9.79
2023-11-19T23:43:41.214Z,9.81
2023-11-19T23:45:21.763Z,9.79
2023-11-19T23:47:02.241Z,9.77
2023-11-19T23:50:22.957Z,9.77
2023-11-19T23:52:03.423Z,9.74
2023-11-19T23:53:43.857Z,9.77
2023-11-19T23:55:24.298Z,9.72
2023-11-19T23:57:04.813Z,9.69
2023-11-19T23:58:45.190Z,9.66
